^^
Station Historical Data
Daily Summary for February 10, 2017 Units:  English    Metric   Both
« Previous Day
Next Day »
Daily Weekly Monthly Yearly Custom
  High: Low: Average:
Temperature: 29.2 °F 17.8 °F 24.5 °F
Dew Point: 17.4 °F 6.8 °F 13.2 °F
Humidity: 72 % 54 % 62 %
Wind Speed: 13.8 mph 0.0 mph 4.8 mph
Wind Gust: 23.0 mph - -
Wind:- - WSW
Pressure: 30.34 in 30.07 in -
Precipitation: 0.00 in    
Historical Graphs
 
 
Tabular Data for February 10, 2017
Time Temperature Dew Point Pressure Wind Wind Speed Wind Gust Humidity Rainfall Rate (Hourly) solar Conditions
00:02 20.5 °F 9.9 °F 30.15 in WNW 7.9 mph 11.5 mph 63 % 0.00 in 0.0 W/m2 RA
00:07 20.7 °F 10.1 °F 30.15 in WNW 4.9 mph 11.5 mph 63 % 0.00 in 0.0 W/m2 RA
00:12 20.6 °F 10.0 °F 30.16 in West 5.5 mph 11.5 mph 63 % 0.00 in 0.0 W/m2 CLR
00:18 20.5 °F 9.9 °F 30.16 in West 6.8 mph 10.0 mph 63 % 0.00 in 0.0 W/m2 CLR
00:23 20.5 °F 9.9 °F 30.16 in West 8.9 mph 10.4 mph 63 % 0.00 in 0.0 W/m2 CLR
00:28 20.5 °F 10.2 °F 30.16 in West 3.5 mph 11.5 mph 64 % 0.00 in 0.0 W/m2 CLR
00:33 20.4 °F 10.1 °F 30.16 in WSW 4.9 mph 13.0 mph 64 % 0.00 in 0.0 W/m2 CLR
00:38 20.3 °F 10.1 °F 30.16 in West 7.7 mph 11.5 mph 64 % 0.00 in 0.0 W/m2 CLR
00:43 20.2 °F 10.3 °F 30.16 in West 3.8 mph 6.9 mph 65 % 0.00 in 0.0 W/m2 CLR
00:48 20.0 °F 10.5 °F 30.16 in WSW 4.4 mph 10.0 mph 66 % 0.00 in 0.0 W/m2 CLR
00:53 20.0 °F 10.5 °F 30.17 in West 2.6 mph 6.9 mph 66 % 0.00 in 0.0 W/m2 CLR
00:58 19.9 °F 10.4 °F 30.17 in West 5.9 mph 9.0 mph 66 % 0.00 in 0.0 W/m2 CLR
01:03 20.0 °F 10.8 °F 30.17 in WSW 3.6 mph 6.9 mph 67 % 0.00 in 0.0 W/m2 CLR
01:08 20.0 °F 10.8 °F 30.17 in WSW 1.9 mph 3.5 mph 67 % 0.00 in 0.0 W/m2 CLR
01:13 20.0 °F 11.1 °F 30.17 in West 6.3 mph 6.9 mph 68 % 0.00 in 0.0 W/m2 CLR
01:18 20.2 °F 11.3 °F 30.17 in West 5.2 mph 9.2 mph 68 % 0.00 in 0.0 W/m2 CLR
01:23 20.4 °F 11.5 °F 30.17 in West 6.6 mph 11.5 mph 68 % 0.00 in 0.0 W/m2 CLR
01:28 20.5 °F 11.6 °F 30.17 in WSW 4.9 mph 9.2 mph 68 % 0.00 in 0.0 W/m2 CLR
01:33 20.6 °F 11.7 °F 30.17 in WNW 6.4 mph 11.5 mph 68 % 0.00 in 0.0 W/m2 CLR
01:38 20.6 °F 11.7 °F 30.17 in WSW 9.9 mph 12.7 mph 68 % 0.00 in 0.0 W/m2 CLR
01:43 20.6 °F 11.7 °F 30.18 in WSW 4.7 mph 9.0 mph 68 % 0.00 in 0.0 W/m2 CLR
01:48 20.6 °F 11.7 °F 30.18 in WSW 5.1 mph 8.1 mph 68 % 0.00 in 0.0 W/m2 CLR
01:53 20.6 °F 11.7 °F 30.18 in West 3.6 mph 8.1 mph 68 % 0.00 in 0.0 W/m2 CLR
01:58 20.7 °F 11.5 °F 30.18 in WSW 3.7 mph 6.9 mph 67 % 0.00 in 0.0 W/m2 CLR
02:03 20.8 °F 11.6 °F 30.18 in WSW 4.1 mph 8.1 mph 67 % 0.00 in 0.0 W/m2 CLR
02:08 20.9 °F 11.7 °F 30.18 in WSW 5.9 mph 11.5 mph 67 % 0.00 in 0.0 W/m2 CLR
02:13 20.9 °F 11.7 °F 30.18 in West 6.1 mph 8.1 mph 67 % 0.00 in 0.0 W/m2 CLR
02:18 20.9 °F 11.7 °F 30.18 in WSW 4.3 mph 9.2 mph 67 % 0.00 in 0.0 W/m2 CLR
02:23 20.9 °F 11.3 °F 30.18 in WSW 13.8 mph 23.0 mph 66 % 0.00 in 0.0 W/m2 CLR
02:28 21.0 °F 10.4 °F 30.19 in WSW 5.3 mph 11.5 mph 63 % 0.00 in 0.0 W/m2 CLR
02:33 21.1 °F 10.1 °F 30.19 in WSW 7.5 mph 11.5 mph 62 % 0.00 in 0.0 W/m2 CLR
02:38 21.2 °F 9.1 °F 30.19 in West 6.8 mph 11.5 mph 59 % 0.00 in 0.0 W/m2 CLR
02:43 21.4 °F 8.9 °F 30.19 in West 10.6 mph 16.1 mph 58 % 0.00 in 0.0 W/m2 CLR
02:48 21.3 °F 8.4 °F 30.20 in West 9.2 mph 11.5 mph 57 % 0.00 in 0.0 W/m2 CLR
02:53 21.2 °F 7.5 °F 30.21 in WNW 10.3 mph 15.0 mph 55 % 0.00 in 0.0 W/m2 CLR
02:58 21.2 °F 7.5 °F 30.21 in WNW 12.2 mph 21.9 mph 55 % 0.00 in 0.0 W/m2 CLR
03:03 21.1 °F 7.4 °F 30.21 in WNW 6.6 mph 9.2 mph 55 % 0.00 in 0.0 W/m2 CLR
03:08 21.0 °F 7.3 °F 30.21 in West 7.2 mph 16.1 mph 55 % 0.00 in 0.0 W/m2 CLR
03:13 20.9 °F 6.8 °F 30.22 in SW 8.3 mph 13.8 mph 54 % 0.00 in 0.0 W/m2 CLR
03:18 20.8 °F 7.2 °F 30.22 in WNW 3.1 mph 5.8 mph 55 % 0.00 in 0.0 W/m2 CLR
03:23 20.6 °F 7.0 °F 30.22 in West 8.9 mph 12.7 mph 55 % 0.00 in 0.0 W/m2 CLR
03:28 20.7 °F 7.5 °F 30.22 in West 7.9 mph 12.7 mph 56 % 0.00 in 0.0 W/m2 CLR
03:33 20.8 °F 7.6 °F 30.22 in WSW 10.5 mph 18.4 mph 56 % 0.00 in 0.0 W/m2 CLR
03:38 20.8 °F 7.6 °F 30.23 in WSW 7.8 mph 12.7 mph 56 % 0.00 in 0.0 W/m2 CLR
03:43 20.5 °F 7.7 °F 30.23 in West 7.0 mph 13.8 mph 57 % 0.00 in 0.0 W/m2 CLR
03:48 20.1 °F 7.7 °F 30.23 in WSW 6.2 mph 10.4 mph 58 % 0.00 in 0.0 W/m2 CLR
03:53 19.8 °F 7.8 °F 30.23 in WSW 4.5 mph 6.0 mph 59 % 0.00 in 0.0 W/m2 CLR
03:58 19.6 °F 8.3 °F 30.23 in WSW 4.6 mph 10.4 mph 61 % 0.00 in 0.0 W/m2 CLR
04:03 19.3 °F 8.4 °F 30.23 in WSW 2.3 mph 11.5 mph 62 % 0.00 in 0.0 W/m2 CLR
04:09 19.1 °F 8.6 °F 30.23 in WSW 3.8 mph 7.0 mph 63 % 0.00 in 0.0 W/m2 CLR
04:14 18.8 °F 8.6 °F 30.23 in West 0.6 mph 3.5 mph 64 % 0.00 in 0.0 W/m2 CLR
04:19 18.7 °F 8.5 °F 30.24 in WSW 3.9 mph 5.8 mph 64 % 0.00 in 0.0 W/m2 CLR
04:24 18.6 °F 8.8 °F 30.24 in WSW 4.0 mph 8.1 mph 65 % 0.00 in 0.0 W/m2 CLR
04:29 18.8 °F 9.0 °F 30.24 in West 2.0 mph 11.5 mph 65 % 0.00 in 0.0 W/m2 CLR
04:34 18.8 °F 9.0 °F 30.24 in WSW 4.9 mph 10.4 mph 65 % 0.00 in 0.0 W/m2 CLR
04:39 18.7 °F 9.2 °F 30.25 in WSW 3.4 mph 9.2 mph 66 % 0.00 in 0.0 W/m2 CLR
04:44 18.6 °F 9.5 °F 30.25 in WSW 2.8 mph 8.1 mph 67 % 0.00 in 0.0 W/m2 CLR
04:49 18.6 °F 9.8 °F 30.25 in West 6.1 mph 9.2 mph 68 % 0.00 in 0.0 W/m2 CLR
04:54 18.6 °F 10.1 °F 30.25 in West 7.5 mph 10.4 mph 69 % 0.00 in 0.0 W/m2 CLR
04:59 18.7 °F 10.2 °F 30.26 in SW 3.0 mph 7.0 mph 69 % 0.00 in 0.0 W/m2 CLR
05:04 18.7 °F 10.5 °F 30.26 in SW 4.5 mph 8.1 mph 70 % 0.00 in 0.0 W/m2 CLR
05:09 18.7 °F 10.9 °F 30.26 in West 5.2 mph 7.0 mph 71 % 0.00 in 0.0 W/m2 CLR
05:14 18.7 °F 10.9 °F 30.26 in WSW 7.0 mph 13.0 mph 71 % 0.00 in 0.0 W/m2 CLR
05:19 18.8 °F 11.3 °F 30.26 in West 3.7 mph 6.9 mph 72 % 0.00 in 0.0 W/m2 CLR
05:24 18.7 °F 11.2 °F 30.27 in WSW 6.3 mph 9.2 mph 72 % 0.00 in 0.0 W/m2 CLR
05:29 18.8 °F 11.3 °F 30.27 in WSW 8.3 mph 15.0 mph 72 % 0.00 in 0.0 W/m2 CLR
05:34 18.9 °F 11.4 °F 30.27 in West 1.5 mph 4.6 mph 72 % 0.00 in 0.0 W/m2 CLR
05:39 19.1 °F 11.6 °F 30.27 in West 9.0 mph 17.3 mph 72 % 0.00 in 0.0 W/m2 CLR
05:44 19.5 °F 11.6 °F 30.27 in West 8.9 mph 12.0 mph 71 % 0.00 in 0.0 W/m2 CLR
05:49 19.8 °F 11.3 °F 30.27 in WSW 8.8 mph 16.1 mph 69 % 0.00 in 0.0 W/m2 CLR
05:54 19.9 °F 11.0 °F 30.27 in West 6.5 mph 11.5 mph 68 % 0.00 in 0.0 W/m2 CLR
05:59 20.0 °F 10.8 °F 30.27 in WNW 9.0 mph 16.1 mph 67 % 0.00 in 0.0 W/m2 CLR
06:04 20.0 °F 10.5 °F 30.27 in West 9.1 mph 13.8 mph 66 % 0.00 in 0.0 W/m2 CLR
06:09 20.0 °F 10.5 °F 30.28 in WSW 5.2 mph 10.0 mph 66 % 0.00 in 0.0 W/m2 CLR
06:14 19.9 °F 10.4 °F 30.28 in WSW 4.1 mph 8.1 mph 66 % 0.00 in 0.0 W/m2 CLR
06:19 19.6 °F 10.1 °F 30.28 in WSW 6.3 mph 10.4 mph 66 % 0.00 in 0.0 W/m2 CLR
06:24 19.4 °F 9.9 °F 30.28 in WNW 1.9 mph 4.6 mph 66 % 0.00 in 0.0 W/m2 CLR
06:29 19.2 °F 9.7 °F 30.28 in WSW 1.7 mph 4.6 mph 66 % 0.00 in 0.0 W/m2 CLR
06:34 19.1 °F 9.6 °F 30.28 in WSW 2.9 mph 6.9 mph 66 % 0.00 in 0.0 W/m2 CLR
06:39 18.8 °F 9.6 °F 30.28 in SW 2.1 mph 4.6 mph 67 % 0.00 in 0.0 W/m2 CLR
06:44 18.7 °F 9.6 °F 30.29 in WSW 2.1 mph 4.6 mph 67 % 0.00 in 0.0 W/m2 CLR
06:49 18.6 °F 9.1 °F 30.29 in WSW 0.7 mph 3.5 mph 66 % 0.00 in 0.0 W/m2 CLR
06:54 18.3 °F 9.2 °F 30.28 in WSW 0.6 mph 2.3 mph 67 % 0.00 in 0.0 W/m2 CLR
06:59 18.1 °F 9.0 °F 30.28 in SW 2.6 mph 4.0 mph 67 % 0.00 in 0.0 W/m2 CLR
07:04 18.0 °F 8.9 °F 30.28 in WSW 2.6 mph 3.5 mph 67 % 0.00 in 5.0 W/m2 CLR
07:09 17.9 °F 9.1 °F 30.29 in WSW 0.3 mph 3.5 mph 68 % 0.00 in 7.0 W/m2 CLR
07:14 17.8 °F 9.0 °F 30.29 in West 0.6 mph 3.5 mph 68 % 0.00 in 11.0 W/m2 CLR
07:19 17.8 °F 9.0 °F 30.29 in West 1.0 mph 3.5 mph 68 % 0.00 in 12.0 W/m2 CLR
07:24 17.9 °F 9.1 °F 30.29 in Calm   3.5 mph 68 % 0.00 in 12.0 W/m2 CLR
07:29 18.1 °F 9.3 °F 30.30 in WSW 0.6 mph 3.5 mph 68 % 0.00 in 12.0 W/m2 CLR
07:34 18.2 °F 9.4 °F 30.30 in SW 1.8 mph 6.0 mph 68 % 0.00 in 19.0 W/m2 CLR
07:39 18.7 °F 10.2 °F 30.30 in West 3.2 mph 9.2 mph 69 % 0.00 in 25.0 W/m2 CLR
07:44 19.1 °F 10.6 °F 30.31 in WSW 4.0 mph 7.0 mph 69 % 0.00 in 32.0 W/m2 CLR
07:49 19.5 °F 11.0 °F 30.31 in WSW 4.5 mph 8.1 mph 69 % 0.00 in 35.0 W/m2 SCT
07:54 19.8 °F 11.3 °F 30.31 in WSW 2.4 mph 4.6 mph 69 % 0.00 in 56.0 W/m2 CLR
07:59 20.0 °F 11.5 °F 30.31 in WSW 5.5 mph 8.0 mph 69 % 0.00 in 67.0 W/m2 CLR
08:04 20.2 °F 11.3 °F 30.31 in SW 6.2 mph 11.5 mph 68 % 0.00 in 84.0 W/m2 CLR
08:09 20.5 °F 11.6 °F 30.32 in West 3.7 mph 9.2 mph 68 % 0.00 in 97.0 W/m2 CLR
08:15 20.7 °F 11.8 °F 30.31 in WNW 6.6 mph 9.2 mph 68 % 0.00 in 118.0 W/m2 CLR
08:20 20.9 °F 12.0 °F 30.32 in West 8.3 mph 10.0 mph 68 % 0.00 in 32.0 W/m2 FEW
08:25 21.1 °F 12.2 °F 30.32 in West 5.3 mph 11.5 mph 68 % 0.00 in 134.0 W/m2 CLR
08:30 21.4 °F 12.5 °F 30.32 in West 7.1 mph 15.0 mph 68 % 0.00 in 142.0 W/m2 CLR
08:35 21.6 °F 12.7 °F 30.31 in WSW 5.8 mph 6.9 mph 68 % 0.00 in 116.0 W/m2 FEW
08:40 21.7 °F 12.4 °F 30.31 in West 4.8 mph 10.4 mph 67 % 0.00 in 128.0 W/m2 FEW
08:45 21.8 °F 12.5 °F 30.32 in West 5.1 mph 11.5 mph 67 % 0.00 in 105.0 W/m2 BKN
08:50 21.8 °F 12.5 °F 30.31 in West 8.0 mph 13.0 mph 67 % 0.00 in 62.0 W/m2 OVC
08:55 21.9 °F 12.9 °F 30.31 in WSW 5.0 mph 13.0 mph 68 % 0.00 in 178.0 W/m2 FEW
09:00 22.1 °F 12.8 °F 30.32 in WNW 6.5 mph 9.2 mph 67 % 0.00 in 239.0 W/m2 CLR
09:05 22.4 °F 13.1 °F 30.31 in West 7.4 mph 9.2 mph 67 % 0.00 in 229.0 W/m2 CLR
09:10 22.8 °F 13.5 °F 30.31 in West 4.3 mph 8.0 mph 67 % 0.00 in 155.0 W/m2 FEW
09:15 23.1 °F 13.8 °F 30.31 in WSW 4.3 mph 8.1 mph 67 % 0.00 in 199.0 W/m2 FEW
09:20 23.2 °F 13.5 °F 30.31 in WSW 8.1 mph 11.5 mph 66 % 0.00 in 77.0 W/m2 SCT
09:25 23.2 °F 13.5 °F 30.32 in West 7.7 mph 11.5 mph 66 % 0.00 in 146.0 W/m2 SCT
09:30 23.1 °F 13.4 °F 30.32 in WSW 6.7 mph 11.5 mph 66 % 0.00 in 216.0 W/m2 SCT
09:35 23.2 °F 13.2 °F 30.32 in WSW 5.8 mph 11.5 mph 65 % 0.00 in 137.0 W/m2 BKN
09:40 23.3 °F 13.3 °F 30.32 in West 5.5 mph 9.2 mph 65 % 0.00 in 169.0 W/m2 SCT
09:45 23.7 °F 13.3 °F 30.32 in WNW 10.7 mph 13.8 mph 64 % 0.00 in 165.0 W/m2 BKN
09:50 23.9 °F 13.1 °F 30.32 in WNW 12.1 mph 19.6 mph 63 % 0.00 in 185.0 W/m2 SCT
09:55 24.0 °F 12.9 °F 30.32 in WNW 7.1 mph 11.5 mph 62 % 0.00 in 172.0 W/m2 SCT
10:00 24.0 °F 12.5 °F 30.32 in NW 13.4 mph 19.6 mph 61 % 0.00 in 160.0 W/m2 BKN
10:05 23.9 °F 12.0 °F 30.32 in WNW 11.7 mph 15.0 mph 60 % 0.00 in 151.0 W/m2 BKN
10:10 24.0 °F 12.5 °F 30.32 in NW 5.7 mph 9.2 mph 61 % 0.00 in 114.0 W/m2 BKN
10:15 24.0 °F 12.1 °F 30.32 in NW 8.9 mph 12.7 mph 60 % 0.00 in 185.0 W/m2 BKN
10:22 24.2 °F 11.9 °F 30.32 in West 13.0 mph 13.0 mph 59 % 0.00 in 183.0 W/m2 OVC
10:27 24.4 °F 12.1 °F 30.33 in West 6.7 mph 12.0 mph 59 % 0.00 in 267.0 W/m2 SCT
10:32 24.9 °F 12.6 °F 30.33 in West 9.6 mph 18.4 mph 59 % 0.00 in 534.0 W/m2 CLR
10:37 25.3 °F 13.0 °F 30.33 in WNW 7.5 mph 11.0 mph 59 % 0.00 in 461.0 W/m2 CLR
10:42 25.7 °F 13.3 °F 30.33 in West 8.5 mph 17.3 mph 59 % 0.00 in 283.0 W/m2 SCT
10:47 25.8 °F 13.0 °F 30.33 in WSW 9.0 mph 16.1 mph 58 % 0.00 in 418.0 W/m2 CLR
10:53 26.0 °F 13.2 °F 30.33 in WNW 11.0 mph 19.6 mph 58 % 0.00 in 401.0 W/m2 FEW
10:58 26.0 °F 12.8 °F 30.34 in West 10.5 mph 16.1 mph 57 % 0.00 in 455.0 W/m2 FEW
11:03 25.9 °F 12.7 °F 30.33 in WNW 7.9 mph 16.1 mph 57 % 0.00 in 534.0 W/m2 CLR
11:08 26.0 °F 12.8 °F 30.34 in West 10.5 mph 12.7 mph 57 % 0.00 in 178.0 W/m2 BKN
11:13 26.2 °F 13.0 °F 30.34 in West 10.9 mph 16.1 mph 57 % 0.00 in 512.0 W/m2 CLR
11:18 26.2 °F 13.4 °F 30.34 in WNW 9.7 mph 11.5 mph 58 % 0.00 in 287.0 W/m2 SCT
11:23 26.7 °F 13.5 °F 30.33 in West 8.9 mph 15.0 mph 57 % 0.00 in 728.0 W/m2 CLR
11:28 27.2 °F 14.8 °F 30.34 in West 9.4 mph 12.7 mph 59 % 0.00 in 707.0 W/m2 CLR
11:33 27.1 °F 13.9 °F 30.34 in WSW 13.0 mph 13.8 mph 57 % 0.00 in 733.0 W/m2 CLR
11:38 27.6 °F 14.7 °F 30.34 in West 9.3 mph 15.0 mph 58 % 0.00 in 705.0 W/m2 CLR
11:43 27.5 °F 14.2 °F 30.33 in SW 12.5 mph 19.6 mph 57 % 0.00 in 584.0 W/m2 CLR
11:48 27.4 °F 14.5 °F 30.33 in SW 8.1 mph 12.7 mph 58 % 0.00 in 543.0 W/m2 CLR
11:53 27.3 °F 14.1 °F 30.33 in WSW 11.0 mph 18.4 mph 57 % 0.00 in 559.0 W/m2 CLR
11:58 27.4 °F 14.5 °F 30.32 in West 6.2 mph 11.0 mph 58 % 0.00 in 605.0 W/m2 CLR
12:03 27.7 °F 14.8 °F 30.32 in WSW 7.7 mph 13.8 mph 58 % 0.00 in 668.0 W/m2 CLR
12:07 27.7 °F 14.0 °F 30.32 in WSW 10.5 mph 16.0 mph 56 % 0.00 in 628.0 W/m2 CLR
12:12 27.9 °F 14.6 °F 30.31 in West 6.0 mph 10.4 mph 57 % 0.00 in 624.0 W/m2 CLR
12:17 28.0 °F 14.7 °F 30.31 in West 9.4 mph 16.1 mph 57 % 0.00 in 541.0 W/m2 CLR
12:21 27.8 °F 14.5 °F 30.31 in West 7.8 mph 11.5 mph 57 % 0.00 in 464.0 W/m2 CLR
12:22 27.8 °F 14.1 °F 30.30 in WSW 10.9 mph 16.1 mph 56 % 0.00 in 506.0 W/m2 CLR
12:27 27.7 °F 14.4 °F 30.30 in SW 4.5 mph 11.5 mph 57 % 0.00 in 554.0 W/m2 CLR
12:32 28.2 °F 14.9 °F 30.30 in West 6.4 mph 11.5 mph 57 % 0.00 in 529.0 W/m2 CLR
12:37 28.0 °F 13.9 °F 30.29 in West 10.0 mph 15.0 mph 55 % 0.00 in 485.0 W/m2 CLR
12:42 27.8 °F 14.1 °F 30.29 in WNW 9.4 mph 11.5 mph 56 % 0.00 in 489.0 W/m2 CLR
12:47 28.1 °F 14.8 °F 30.29 in SW 8.1 mph 14.0 mph 57 % 0.00 in 548.0 W/m2 CLR
12:49 28.3 °F 14.6 °F 30.29 in West 10.7 mph 16.1 mph 56 % 0.00 in 548.0 W/m2 CLR
12:53 28.3 °F 14.6 °F 30.29 in WSW 5.5 mph 11.5 mph 56 % 0.00 in 547.0 W/m2 CLR
12:58 28.5 °F 14.4 °F 30.29 in WSW 10.0 mph 12.7 mph 55 % 0.00 in 543.0 W/m2 CLR
13:03 28.8 °F 15.5 °F 30.28 in WNW 6.6 mph 10.4 mph 57 % 0.00 in 559.0 W/m2 CLR
13:08 28.6 °F 14.9 °F 30.28 in WNW 5.7 mph 6.9 mph 56 % 0.00 in 571.0 W/m2 CLR
13:13 28.6 °F 14.9 °F 30.28 in West 9.0 mph 12.7 mph 56 % 0.00 in 615.0 W/m2 CLR
13:18 28.6 °F 14.5 °F 30.28 in West 7.7 mph 13.8 mph 55 % 0.00 in 605.0 W/m2 CLR
13:23 28.6 °F 14.5 °F 30.28 in SW 8.9 mph 11.5 mph 55 % 0.00 in 508.0 W/m2 CLR
13:28 28.6 °F 14.9 °F 30.28 in SSW 7.5 mph 13.0 mph 56 % 0.00 in 592.0 W/m2 CLR
13:33 28.4 °F 14.3 °F 30.28 in SSW 8.4 mph 16.1 mph 55 % 0.00 in 496.0 W/m2 CLR
13:38 28.2 °F 14.5 °F 30.27 in WSW 8.9 mph 13.8 mph 56 % 0.00 in 594.0 W/m2 CLR
13:43 28.7 °F 15.0 °F 30.27 in SW 8.0 mph 13.8 mph 56 % 0.00 in 594.0 W/m2 CLR
13:48 28.9 °F 15.6 °F 30.28 in SW 6.5 mph 11.5 mph 57 % 0.00 in 592.0 W/m2 CLR
13:53 28.8 °F 15.1 °F 30.28 in WSW 7.3 mph 11.5 mph 56 % 0.00 in 533.0 W/m2 CLR
13:58 29.2 °F 15.8 °F 30.28 in West 4.9 mph 10.4 mph 57 % 0.00 in 494.0 W/m2 CLR
14:03 29.0 °F 14.8 °F 30.27 in WSW 8.8 mph 15.0 mph 55 % 0.00 in 496.0 W/m2 CLR
14:08 28.8 °F 15.1 °F 30.28 in WSW 5.5 mph 13.8 mph 56 % 0.00 in 490.0 W/m2 CLR
14:13 28.6 °F 14.9 °F 30.28 in SSW 9.3 mph 12.0 mph 56 % 0.00 in 418.0 W/m2 CLR
14:18 28.7 °F 15.4 °F 30.28 in WSW 5.7 mph 11.5 mph 57 % 0.00 in 396.0 W/m2 CLR
14:23 29.1 °F 15.7 °F 30.28 in SW 8.8 mph 15.0 mph 57 % 0.00 in 357.0 W/m2 CLR
14:28 28.7 °F 15.4 °F 30.28 in West 5.1 mph 10.4 mph 57 % 0.00 in 330.0 W/m2 CLR
14:33 28.5 °F 15.2 °F 30.28 in WSW 7.3 mph 11.5 mph 57 % 0.00 in 318.0 W/m2 FEW
14:38 28.5 °F 15.2 °F 30.28 in SW 5.2 mph 6.9 mph 57 % 0.00 in 316.0 W/m2 CLR
14:43 28.3 °F 14.6 °F 30.27 in WSW 6.6 mph 11.5 mph 56 % 0.00 in 272.0 W/m2 FEW
14:48 28.3 °F 15.4 °F 30.27 in SW 4.1 mph 8.1 mph 58 % 0.00 in 265.0 W/m2 FEW
14:53 28.7 °F 15.8 °F 30.27 in WSW 3.9 mph 6.9 mph 58 % 0.00 in 258.0 W/m2 FEW
14:58 28.6 °F 15.3 °F 30.27 in WSW 4.4 mph 11.0 mph 57 % 0.00 in 269.0 W/m2 FEW
15:03 28.4 °F 14.7 °F 30.26 in West 5.1 mph 12.7 mph 56 % 0.00 in 253.0 W/m2 FEW
15:08 28.4 °F 15.1 °F 30.26 in SW 7.3 mph 15.0 mph 57 % 0.00 in 269.0 W/m2 CLR
15:13 28.5 °F 15.2 °F 30.26 in WSW 7.2 mph 11.5 mph 57 % 0.00 in 332.0 W/m2 CLR
15:18 28.6 °F 15.3 °F 30.26 in SSW 8.7 mph 12.7 mph 57 % 0.00 in 313.0 W/m2 CLR
15:23 28.5 °F 15.2 °F 30.26 in SW 7.1 mph 11.5 mph 57 % 0.00 in 271.0 W/m2 CLR
15:28 28.3 °F 15.0 °F 30.26 in SSW 3.4 mph 9.2 mph 57 % 0.00 in 183.0 W/m2 FEW
15:33 28.2 °F 14.9 °F 30.27 in SW 5.0 mph 6.9 mph 57 % 0.00 in 178.0 W/m2 FEW
15:38 28.0 °F 14.7 °F 30.27 in SSW 10.5 mph 16.1 mph 57 % 0.00 in 199.0 W/m2 CLR
15:43 28.0 °F 14.7 °F 30.27 in WSW 8.1 mph 11.0 mph 57 % 0.00 in 181.0 W/m2 FEW
15:48 27.8 °F 14.9 °F 30.26 in WSW 6.8 mph 10.4 mph 58 % 0.00 in 221.0 W/m2 CLR
15:53 27.9 °F 15.0 °F 30.26 in WSW 5.9 mph 10.4 mph 58 % 0.00 in 176.0 W/m2 CLR
15:58 27.9 °F 15.0 °F 30.26 in SW 7.3 mph 11.5 mph 58 % 0.00 in 130.0 W/m2 FEW
16:03 27.7 °F 14.4 °F 30.26 in SW 7.2 mph 11.5 mph 57 % 0.00 in 132.0 W/m2 FEW
16:08 27.7 °F 14.8 °F 30.26 in West 4.7 mph 8.1 mph 58 % 0.00 in 160.0 W/m2 CLR
16:13 27.8 °F 14.9 °F 30.26 in West 2.7 mph 7.0 mph 58 % 0.00 in 171.0 W/m2 CLR
16:18 27.9 °F 15.0 °F 30.26 in WSW 8.8 mph 11.5 mph 58 % 0.00 in 211.0 W/m2 CLR
16:23 28.1 °F 15.2 °F 30.25 in WSW 8.1 mph 11.5 mph 58 % 0.00 in 179.0 W/m2 CLR
16:28 28.0 °F 14.7 °F 30.26 in WSW 6.0 mph 10.4 mph 57 % 0.00 in 156.0 W/m2 CLR
16:33 28.0 °F 15.1 °F 30.25 in SSW 5.9 mph 8.1 mph 58 % 0.00 in 91.0 W/m2 CLR
16:38 27.7 °F 14.4 °F 30.25 in WSW 6.8 mph 8.0 mph 57 % 0.00 in 49.0 W/m2 SCT
16:43 27.6 °F 14.7 °F 30.25 in SW 6.1 mph 9.2 mph 58 % 0.00 in 39.0 W/m2 BKN
16:48 27.5 °F 14.6 °F 30.24 in WSW 6.2 mph 10.4 mph 58 % 0.00 in 40.0 W/m2 SCT
16:53 27.4 °F 14.5 °F 30.25 in SW 6.2 mph 10.4 mph 58 % 0.00 in 37.0 W/m2 SCT
16:58 27.4 °F 14.5 °F 30.24 in WSW 3.4 mph 3.5 mph 58 % 0.00 in 35.0 W/m2 SCT
17:03 27.4 °F 14.5 °F 30.24 in WSW 3.2 mph 6.9 mph 58 % 0.00 in 39.0 W/m2 CLR
17:08 27.4 °F 14.5 °F 30.25 in SW 6.0 mph 8.1 mph 58 % 0.00 in 32.0 W/m2 CLR
17:13 27.4 °F 14.5 °F 30.24 in West 0.8 mph 2.3 mph 58 % 0.00 in 25.0 W/m2 CLR
17:18 27.4 °F 14.9 °F 30.24 in SW 4.4 mph 8.1 mph 59 % 0.00 in 11.0 W/m2 FEW
17:23 27.3 °F 14.5 °F 30.24 in SW 2.8 mph 4.0 mph 58 % 0.00 in 5.0 W/m2 SCT
17:28 27.2 °F 14.4 °F 30.24 in WSW 3.4 mph 6.0 mph 58 % 0.00 in 0.0 W/m2 CLR
17:33 27.2 °F 14.8 °F 30.24 in West 1.8 mph 4.0 mph 59 % 0.00 in 0.0 W/m2 CLR
17:38 27.2 °F 14.8 °F 30.24 in SW 3.1 mph 4.6 mph 59 % 0.00 in 0.0 W/m2 CLR
17:43 27.2 °F 14.4 °F 30.23 in SW 2.1 mph 4.6 mph 58 % 0.00 in 0.0 W/m2 CLR
17:48 27.2 °F 14.8 °F 30.23 in West 1.8 mph 5.8 mph 59 % 0.00 in 0.0 W/m2 CLR
17:53 27.2 °F 15.1 °F 30.22 in Calm   1.2 mph 60 % 0.00 in 0.0 W/m2 CLR
17:58 27.2 °F 15.1 °F 30.23 in SSW 1.1 mph 3.5 mph 60 % 0.00 in 0.0 W/m2 CLR
18:03 27.2 °F 15.1 °F 30.22 in WSW 1.3 mph 2.3 mph 60 % 0.00 in 0.0 W/m2 CLR
18:08 27.2 °F 15.5 °F 30.22 in Calm     61 % 0.00 in 0.0 W/m2 CLR
18:13 27.3 °F 15.2 °F 30.22 in SSW 2.7 mph 3.5 mph 60 % 0.00 in 0.0 W/m2 CLR
18:18 27.3 °F 15.2 °F 30.21 in SSW 2.2 mph 4.6 mph 60 % 0.00 in 0.0 W/m2 CLR
18:23 27.3 °F 15.2 °F 30.21 in SSW 2.1 mph 3.5 mph 60 % 0.00 in 0.0 W/m2 CLR
18:28 27.4 °F 15.7 °F 30.21 in SW 2.3 mph 3.5 mph 61 % 0.00 in 0.0 W/m2 CLR
18:33 27.4 °F 14.9 °F 30.21 in West 3.4 mph 6.0 mph 59 % 0.00 in 0.0 W/m2 CLR
18:38 27.3 °F 14.8 °F 30.20 in SSW 7.1 mph 10.4 mph 59 % 0.00 in 0.0 W/m2 CLR
18:43 27.3 °F 15.2 °F 30.21 in SW 4.1 mph 5.0 mph 60 % 0.00 in 0.0 W/m2 CLR
18:48 27.2 °F 15.5 °F 30.20 in WSW 2.4 mph 5.8 mph 61 % 0.00 in 0.0 W/m2 CLR
18:54 27.2 °F 15.9 °F 30.20 in West 1.5 mph 4.6 mph 62 % 0.00 in 0.0 W/m2 CLR
18:59 27.1 °F 15.8 °F 30.20 in West 1.3 mph 3.5 mph 62 % 0.00 in 0.0 W/m2 CLR
19:04 27.2 °F 15.5 °F 30.20 in Calm   3.5 mph 61 % 0.00 in 0.0 W/m2 CLR
19:09 27.1 °F 15.4 °F 30.19 in Calm     61 % 0.00 in 0.0 W/m2 CLR
19:14 27.1 °F 15.4 °F 30.18 in Calm     61 % 0.00 in 0.0 W/m2 CLR
19:19 27.1 °F 15.4 °F 30.17 in Calm     61 % 0.00 in 0.0 W/m2 CLR
19:24 27.2 °F 15.9 °F 30.17 in Calm     62 % 0.00 in 0.0 W/m2 CLR
19:29 27.3 °F 15.6 °F 30.17 in Calm   1.2 mph 61 % 0.00 in 0.0 W/m2 CLR
19:34 27.3 °F 15.2 °F 30.17 in Calm     60 % 0.00 in 0.0 W/m2 CLR
19:39 27.3 °F 15.2 °F 30.17 in Calm     60 % 0.00 in 0.0 W/m2 CLR
19:44 27.3 °F 15.2 °F 30.17 in SSW 1.3 mph 2.3 mph 60 % 0.00 in 0.0 W/m2 CLR
19:49 27.3 °F 15.6 °F 30.16 in SSW 1.7 mph 3.5 mph 61 % 0.00 in 0.0 W/m2 CLR
19:54 27.3 °F 15.6 °F 30.16 in Calm     61 % 0.00 in 0.0 W/m2 CLR
19:59 27.2 °F 15.5 °F 30.16 in Calm     61 % 0.00 in 0.0 W/m2 CLR
20:04 27.4 °F 16.1 °F 30.17 in SSW 0.3 mph 2.3 mph 62 % 0.00 in 0.0 W/m2 CLR
20:09 27.4 °F 16.1 °F 30.16 in Calm     62 % 0.00 in 0.0 W/m2 CLR
20:14 27.2 °F 15.5 °F 30.16 in Calm     61 % 0.00 in 0.0 W/m2 CLR
20:19 27.3 °F 15.2 °F 30.15 in Calm     60 % 0.00 in 0.0 W/m2 CLR
20:24 27.3 °F 15.6 °F 30.15 in Calm     61 % 0.00 in 0.0 W/m2 CLR
20:29 27.3 °F 15.2 °F 30.15 in Calm   1.2 mph 60 % 0.00 in 0.0 W/m2 CLR
20:34 27.3 °F 15.6 °F 30.15 in Calm     61 % 0.00 in 0.0 W/m2 CLR
20:39 27.4 °F 15.7 °F 30.15 in Calm     61 % 0.00 in 0.0 W/m2 CLR
20:44 27.4 °F 15.7 °F 30.15 in SSW 0.2 mph 1.2 mph 61 % 0.00 in 0.0 W/m2 CLR
20:49 27.4 °F 15.7 °F 30.14 in Calm     61 % 0.00 in 0.0 W/m2 CLR
20:54 27.4 °F 16.1 °F 30.14 in SSW 0.1 mph 1.2 mph 62 % 0.00 in 0.0 W/m2 CLR
20:59 27.3 °F 16.0 °F 30.14 in South 0.1 mph 1.2 mph 62 % 0.00 in 0.0 W/m2 CLR
21:04 27.4 °F 16.1 °F 30.14 in Calm     62 % 0.00 in 0.0 W/m2 CLR
21:09 27.4 °F 16.1 °F 30.14 in SSE 0.5 mph 3.5 mph 62 % 0.00 in 0.0 W/m2 CLR
21:14 27.4 °F 16.4 °F 30.14 in South 1.1 mph 3.5 mph 63 % 0.00 in 0.0 W/m2 CLR
21:19 27.4 °F 16.1 °F 30.14 in South 0.2 mph   62 % 0.00 in 0.0 W/m2 CLR
21:24 27.4 °F 16.1 °F 30.15 in Calm     62 % 0.00 in 0.0 W/m2 CLR
21:29 27.5 °F 16.2 °F 30.15 in Calm     62 % 0.00 in 0.0 W/m2 CLR
21:34 27.5 °F 16.2 °F 30.15 in Calm     62 % 0.00 in 0.0 W/m2 CLR
21:39 27.5 °F 16.2 °F 30.15 in Calm     62 % 0.00 in 0.0 W/m2 CLR
21:44 27.5 °F 15.8 °F 30.15 in Calm     61 % 0.00 in 0.0 W/m2 CLR
21:49 27.5 °F 16.2 °F 30.15 in Calm   1.2 mph 62 % 0.00 in 0.0 W/m2 CLR
21:54 27.5 °F 16.5 °F 30.15 in Calm     63 % 0.00 in 0.0 W/m2 CLR
21:59 27.6 °F 16.3 °F 30.15 in South 0.3 mph   62 % 0.00 in 0.0 W/m2 CLR
22:04 27.6 °F 16.6 °F 30.14 in Calm   2.3 mph 63 % 0.00 in 0.0 W/m2 CLR
22:09 27.5 °F 16.9 °F 30.13 in Calm     64 % 0.00 in 0.0 W/m2 CLR
22:14 27.5 °F 16.9 °F 30.12 in SSE 1.0 mph 3.5 mph 64 % 0.00 in 0.0 W/m2 CLR
22:19 27.5 °F 16.9 °F 30.12 in SSE 0.1 mph 3.0 mph 64 % 0.00 in 0.0 W/m2 CLR
22:24 27.5 °F 16.5 °F 30.12 in SSE 1.0 mph 2.3 mph 63 % 0.00 in 0.0 W/m2 CLR
22:29 27.5 °F 16.5 °F 30.11 in Calm   1.2 mph 63 % 0.00 in 0.0 W/m2 CLR
22:34 27.5 °F 16.9 °F 30.11 in Calm   1.2 mph 64 % 0.00 in 0.0 W/m2 CLR
22:39 27.4 °F 16.8 °F 30.10 in SE 1.1 mph 2.3 mph 64 % 0.00 in 0.0 W/m2 CLR
22:44 27.4 °F 16.8 °F 30.10 in ESE 0.7 mph 1.2 mph 64 % 0.00 in 0.0 W/m2 CLR
22:45 27.4 °F 16.8 °F 30.10 in ESE 0.7 mph 1.2 mph 64 % 0.00 in 0.0 W/m2 CLR
22:50 27.4 °F 16.8 °F 30.10 in ESE 0.8 mph 2.0 mph 64 % 0.00 in 0.0 W/m2 CLR
22:55 27.4 °F 16.9 °F 30.10 in ESE 1.0 mph 4.0 mph 64 % 0.00 in 0.0 W/m2 CLR
23:00 27.5 °F 16.9 °F 30.09 in ESE 1.1 mph 3.5 mph 64 % 0.00 in 0.0 W/m2 CLR
23:05 27.5 °F 16.9 °F 30.09 in Calm   1.2 mph 64 % 0.00 in 0.0 W/m2 CLR
23:10 27.6 °F 17.0 °F 30.09 in Calm     64 % 0.00 in 0.0 W/m2 CLR
23:15 27.6 °F 17.0 °F 30.08 in SE 0.7 mph 2.3 mph 64 % 0.00 in 0.0 W/m2 CLR
23:20 27.6 °F 17.0 °F 30.08 in SE 0.6 mph 3.0 mph 64 % 0.00 in 0.0 W/m2 CLR
23:25 27.6 °F 17.0 °F 30.08 in Calm     64 % 0.00 in 0.0 W/m2 CLR
23:30 27.7 °F 17.1 °F 30.08 in Calm     64 % 0.00 in 0.0 W/m2 CLR
23:35 27.7 °F 17.1 °F 30.07 in SE 0.4 mph 1.2 mph 64 % 0.00 in 0.0 W/m2 CLR
23:40 27.7 °F 17.1 °F 30.07 in SSE 0.4 mph 3.5 mph 64 % 0.00 in 0.0 W/m2 CLR
23:45 27.8 °F 17.2 °F 30.08 in SSE 0.1 mph 1.0 mph 64 % 0.00 in 0.0 W/m2 CLR
23:50 27.8 °F 17.2 °F 30.08 in Calm     64 % 0.00 in 0.0 W/m2 CLR
23:55 28.0 °F 17.4 °F 30.07 in SSE 0.7 mph 3.5 mph 64 % 0.00 in 0.0 W/m2 CLR
Air Products Campus Weather
Compliments of Weather Underground - 3.5 mb